createdAt,value
2023-01-27T00:01:13.612Z,66.05
2023-01-27T00:03:20.942Z,73.30
2023-01-27T00:05:28.132Z,82.85
2023-01-27T00:07:34.955Z,73.95
2023-01-27T00:09:43.566Z,70.45
2023-01-27T00:12:07.079Z,70.95
2023-01-27T00:14:14.263Z,72.90
2023-01-27T00:16:22.930Z,87.22
2023-01-27T00:18:30.110Z,95.80
2023-01-27T00:20:53.893Z,92.40
2023-01-27T00:23:17.395Z,83.88
2023-01-27T00:25:24.437Z,82.13
2023-01-27T00:27:31.603Z,81.40
2023-01-27T00:29:38.587Z,76.95
2023-01-27T00:32:04.074Z,82.85
2023-01-27T00:34:13.952Z,81.90
2023-01-27T00:36:21.169Z,84.30
2023-01-27T00:38:28.049Z,81.55
2023-01-27T00:40:35.173Z,77.90
2023-01-27T00:42:42.148Z,74.18
2023-01-27T00:45:09.761Z,74.85
2023-01-27T00:47:18.309Z,71.35
2023-01-27T00:49:25.354Z,70.82
2023-01-27T00:51:32.179Z,69.82
2023-01-27T00:53:39.819Z,68.10
2023-01-27T00:55:48.259Z,68.20
2023-01-27T00:57:55.494Z,64.47
2023-01-27T01:00:02.397Z,58.72
2023-01-27T01:02:10.017Z,55.92
2023-01-27T01:04:18.695Z,49.42
2023-01-27T01:06:26.491Z,49.95
2023-01-27T01:08:35.673Z,43.03
2023-01-27T01:10:43.003Z,40.90
2023-01-27T01:12:49.941Z,38.08
2023-01-27T01:14:58.577Z,36.38
2023-01-27T01:17:05.470Z,32.25
2023-01-27T01:19:13.066Z,32.47
2023-01-27T01:21:22.341Z,31.08
2023-01-27T01:23:29.578Z,31.70
2023-01-27T01:25:36.491Z,29.40
2023-01-27T01:27:43.476Z,26.98
2023-01-27T01:29:50.351Z,28.58
2023-01-27T01:31:57.532Z,30.40
2023-01-27T01:34:04.356Z,25.23
2023-01-27T01:36:13.026Z,25.50
2023-01-27T01:38:21.685Z,24.45
2023-01-27T01:40:29.033Z,22.55
2023-01-27T01:42:55.868Z,22.88
2023-01-27T01:45:43.838Z,22.98
2023-01-27T01:47:50.678Z,23.00
2023-01-27T01:49:57.812Z,22.85
2023-01-27T01:52:10.369Z,23.15
2023-01-27T01:54:21.693Z,22.35
2023-01-27T01:56:34.312Z,23.73
2023-01-27T02:00:53.739Z,18.02
2023-01-27T02:03:00.832Z,17.88
2023-01-27T02:05:12.054Z,18.63
2023-01-27T02:07:26.660Z,17.88
2023-01-27T02:09:36.081Z,17.92
2023-01-27T02:11:42.955Z,17.50
2023-01-27T02:13:50.341Z,16.63
2023-01-27T02:15:57.983Z,15.68
2023-01-27T02:18:06.962Z,16.15
2023-01-27T02:20:22.997Z,14.75
2023-01-27T02:22:41.117Z,15.20
2023-01-27T02:24:53.540Z,13.65
2023-01-27T02:27:02.306Z,14.30
2023-01-27T02:29:12.264Z,12.98
2023-01-27T02:31:19.904Z,13.38
2023-01-27T02:33:28.122Z,13.88
2023-01-27T02:35:39.992Z,12.98
2023-01-27T02:39:55.892Z,13.02
2023-01-27T02:42:07.536Z,13.00
2023-01-27T02:44:16.348Z,13.00
2023-01-27T02:46:24.019Z,12.45
2023-01-27T02:48:31.176Z,12.20
2023-01-27T02:50:38.152Z,12.00
2023-01-27T02:52:45.382Z,10.93
2023-01-27T02:54:52.307Z,11.55
2023-01-27T02:56:59.591Z,12.15
2023-01-27T02:59:10.202Z,11.82
2023-01-27T03:01:21.044Z,11.63
2023-01-27T03:03:27.944Z,11.55
2023-01-27T03:05:35.185Z,12.32
2023-01-27T03:07:42.101Z,10.85
2023-01-27T03:09:49.541Z,11.30
2023-01-27T03:12:12.491Z,10.32
2023-01-27T03:14:21.677Z,10.73
2023-01-27T03:16:45.133Z,10.25
2023-01-27T03:18:52.265Z,10.63
2023-01-27T03:21:05.412Z,10.68
2023-01-27T03:23:13.333Z,9.70
2023-01-27T03:25:20.570Z,9.30
2023-01-27T03:27:28.008Z,9.13
2023-01-27T03:30:10.667Z,8.90
2023-01-27T03:32:18.004Z,8.30
2023-01-27T03:34:37.066Z,8.10
2023-01-27T03:37:05.595Z,7.60
2023-01-27T03:39:29.065Z,7.75
2023-01-27T03:41:52.938Z,8.30
2023-01-27T03:44:17.834Z,8.40
2023-01-27T03:46:27.484Z,8.52
2023-01-27T03:48:34.838Z,8.43
2023-01-27T03:50:44.747Z,8.82
2023-01-27T03:53:05.656Z,8.85
2023-01-27T03:55:13.894Z,8.57
2023-01-27T03:57:20.888Z,8.52
2023-01-27T03:59:28.117Z,7.97
2023-01-27T04:01:36.835Z,8.65
2023-01-27T04:04:00.708Z,8.48
2023-01-27T04:06:25.300Z,7.68
2023-01-27T04:08:32.384Z,6.60
2023-01-27T04:10:39.303Z,6.50
2023-01-27T04:12:45.255Z,6.97
2023-01-27T04:14:53.614Z,6.57
2023-01-27T04:17:04.284Z,7.53
2023-01-27T04:19:13.050Z,6.78
2023-01-27T04:21:20.278Z,6.80
2023-01-27T04:23:27.086Z,6.10
2023-01-27T04:25:34.386Z,6.97
2023-01-27T04:27:41.209Z,6.45
2023-01-27T04:29:48.511Z,6.55
2023-01-27T04:31:55.650Z,6.07
2023-01-27T04:34:04.292Z,6.57
2023-01-27T04:36:12.041Z,7.05
2023-01-27T04:38:19.370Z,6.35
2023-01-27T04:40:26.404Z,6.80
2023-01-27T04:42:33.531Z,6.88
2023-01-27T04:44:40.611Z,7.50
2023-01-27T04:46:47.893Z,6.93
2023-01-27T04:48:54.921Z,5.90
2023-01-27T04:51:03.791Z,6.65
2023-01-27T04:53:10.673Z,6.07
2023-01-27T04:55:18.057Z,5.85
2023-01-27T04:57:24.879Z,6.63
2023-01-27T04:59:32.081Z,6.07
2023-01-27T05:01:38.967Z,6.78
2023-01-27T05:03:46.272Z,6.20
2023-01-27T05:05:53.192Z,6.78
2023-01-27T05:08:06.774Z,5.80
2023-01-27T05:10:14.829Z,6.75
2023-01-27T05:12:21.907Z,5.63
2023-01-27T05:14:29.190Z,6.20
2023-01-27T05:16:36.182Z,6.30
2023-01-27T05:18:43.965Z,6.10
2023-01-27T05:20:51.572Z,6.00
2023-01-27T05:25:36.722Z,5.75
2023-01-27T05:27:43.719Z,5.47
2023-01-27T05:29:50.642Z,6.43
2023-01-27T05:31:57.849Z,5.50
2023-01-27T05:34:05.517Z,5.22
2023-01-27T05:36:14.749Z,5.68
2023-01-27T05:38:21.671Z,5.80
2023-01-27T05:40:29.012Z,5.43
2023-01-27T05:42:37.622Z,5.43
2023-01-27T05:44:44.803Z,5.53
2023-01-27T05:46:51.782Z,6.20
2023-01-27T05:48:59.992Z,5.38
2023-01-27T05:51:07.734Z,6.00
2023-01-27T05:53:14.860Z,6.43
2023-01-27T05:55:22.095Z,6.38
2023-01-27T05:57:29.055Z,6.53
2023-01-27T05:59:37.788Z,6.40
2023-01-27T06:01:44.971Z,6.05
2023-01-27T06:03:52.768Z,6.75
2023-01-27T06:06:00.358Z,5.80
2023-01-27T06:08:07.386Z,5.30
2023-01-27T06:10:15.344Z,5.22
2023-01-27T06:12:22.161Z,5.72
2023-01-27T06:14:29.289Z,5.30
2023-01-27T06:16:37.872Z,5.80
2023-01-27T06:18:45.598Z,4.82
2023-01-27T06:20:52.629Z,4.95
2023-01-27T06:23:00.116Z,5.68
2023-01-27T06:25:07.090Z,5.68
2023-01-27T06:27:14.579Z,5.35
2023-01-27T06:29:21.510Z,5.07
2023-01-27T06:31:29.440Z,5.65
2023-01-27T06:33:38.109Z,5.80
2023-01-27T06:35:45.456Z,5.50
2023-01-27T06:37:53.061Z,5.50
2023-01-27T06:40:00.547Z,5.95
2023-01-27T06:42:14.512Z,5.88
2023-01-27T06:44:21.813Z,5.45
2023-01-27T06:46:28.743Z,6.30
2023-01-27T06:48:38.840Z,5.55
2023-01-27T06:50:45.717Z,5.40
2023-01-27T06:52:52.844Z,6.03
2023-01-27T06:54:59.768Z,6.10
2023-01-27T06:57:07.156Z,5.70
2023-01-27T06:59:14.028Z,5.28
2023-01-27T07:01:22.885Z,5.10
2023-01-27T07:03:30.081Z,5.43
2023-01-27T07:05:39.004Z,6.05
2023-01-27T07:07:45.779Z,6.05
2023-01-27T07:09:53.139Z,5.55
2023-01-27T07:11:59.945Z,5.18
2023-01-27T07:14:09.017Z,5.38
2023-01-27T07:16:17.415Z,4.78
2023-01-27T07:18:25.224Z,4.90
2023-01-27T07:20:32.455Z,5.28
2023-01-27T07:22:41.428Z,4.72
2023-01-27T07:24:48.351Z,4.85
2023-01-27T07:26:55.376Z,4.72
2023-01-27T07:29:02.405Z,4.97
2023-01-27T07:31:09.909Z,5.15
2023-01-27T07:33:17.335Z,5.38
2023-01-27T07:35:24.830Z,5.30
2023-01-27T07:37:31.696Z,4.75
2023-01-27T07:39:40.886Z,4.22
2023-01-27T07:41:47.750Z,4.43
2023-01-27T07:43:54.990Z,4.38
2023-01-27T07:46:04.402Z,4.80
2023-01-27T07:48:13.551Z,5.28
2023-01-27T07:50:20.832Z,4.57
2023-01-27T07:52:28.114Z,5.03
2023-01-27T07:54:34.933Z,5.60
2023-01-27T07:56:43.908Z,4.70
2023-01-27T07:58:50.833Z,5.75
2023-01-27T08:00:57.908Z,4.47
2023-01-27T08:03:07.095Z,4.25
2023-01-27T08:05:14.687Z,4.78
2023-01-27T08:07:21.677Z,5.00
2023-01-27T08:09:28.842Z,4.93
2023-01-27T08:11:35.722Z,5.50
2023-01-27T08:13:44.751Z,4.85
2023-01-27T08:15:57.971Z,4.75
2023-01-27T08:18:05.195Z,4.78
2023-01-27T08:20:13.917Z,4.75
2023-01-27T08:22:23.746Z,4.97
2023-01-27T08:24:30.734Z,5.05
2023-01-27T08:26:37.917Z,5.15
2023-01-27T08:28:46.485Z,5.50
2023-01-27T08:30:54.200Z,5.40
2023-01-27T08:33:01.061Z,5.22
2023-01-27T08:35:08.587Z,5.55
2023-01-27T08:37:15.879Z,4.75
2023-01-27T08:39:23.056Z,4.90
2023-01-27T08:41:31.930Z,5.85
2023-01-27T08:43:39.464Z,4.57
2023-01-27T08:45:48.308Z,4.32
2023-01-27T08:47:55.619Z,4.72
2023-01-27T08:50:02.542Z,4.32
2023-01-27T08:52:09.881Z,4.95
2023-01-27T08:54:16.805Z,4.93
2023-01-27T08:56:23.896Z,4.93
2023-01-27T08:58:31.066Z,4.68
2023-01-27T09:00:38.250Z,4.70
2023-01-27T09:02:46.967Z,4.35
2023-01-27T09:04:54.133Z,4.45
2023-01-27T09:07:01.023Z,4.95
2023-01-27T09:09:14.296Z,4.68
2023-01-27T09:11:21.612Z,4.93
2023-01-27T09:13:29.380Z,4.82
2023-01-27T09:15:37.279Z,4.00
2023-01-27T09:17:46.385Z,4.68
2023-01-27T09:19:53.231Z,4.45
2023-01-27T09:22:00.355Z,4.70
2023-01-27T09:24:07.358Z,5.32
2023-01-27T09:26:14.566Z,4.50
2023-01-27T09:28:21.594Z,4.60
2023-01-27T09:30:30.362Z,4.13
2023-01-27T09:32:37.390Z,4.13
2023-01-27T09:34:46.473Z,4.07
2023-01-27T09:36:56.058Z,4.10
2023-01-27T09:39:07.493Z,4.47
2023-01-27T09:41:57.624Z,4.45
2023-01-27T09:44:21.088Z,3.78
2023-01-27T09:46:41.473Z,3.47
2023-01-27T09:48:59.925Z,3.88
2023-01-27T09:51:16.380Z,3.80
2023-01-27T09:53:54.789Z,3.30
2023-01-27T09:56:08.441Z,3.60
2023-01-27T09:58:28.606Z,3.47
2023-01-27T10:00:49.510Z,3.80
2023-01-27T10:03:16.558Z,3.17
2023-01-27T10:05:48.216Z,2.90
2023-01-27T10:08:35.794Z,3.25
2023-01-27T10:11:02.124Z,3.65
2023-01-27T10:13:26.642Z,3.53
2023-01-27T10:15:49.109Z,4.00
2023-01-27T10:18:05.516Z,3.22
2023-01-27T10:20:28.297Z,3.10
2023-01-27T10:22:45.614Z,2.72
2023-01-27T10:25:03.576Z,3.00
2023-01-27T10:27:17.033Z,3.05
2023-01-27T10:29:28.202Z,3.22
2023-01-27T10:31:39.689Z,3.47
2023-01-27T10:33:54.693Z,3.70
2023-01-27T10:36:03.375Z,3.40
2023-01-27T10:38:17.718Z,3.40
2023-01-27T10:40:32.126Z,3.70
2023-01-27T10:42:46.875Z,2.90
2023-01-27T10:45:12.236Z,3.50
2023-01-27T10:47:30.940Z,3.95
2023-01-27T10:49:42.419Z,3.83
2023-01-27T10:51:56.418Z,3.95
2023-01-27T10:54:08.865Z,4.20
2023-01-27T10:56:25.728Z,3.67
2023-01-27T10:58:48.022Z,4.40
2023-01-27T11:01:19.973Z,4.57
2023-01-27T11:03:32.019Z,4.72
2023-01-27T11:05:42.818Z,4.13
2023-01-27T11:07:54.265Z,3.42
2023-01-27T11:10:05.955Z,3.83
2023-01-27T11:12:16.667Z,4.00
2023-01-27T11:14:31.528Z,4.17
2023-01-27T11:16:41.805Z,3.90
2023-01-27T11:18:52.499Z,3.95
2023-01-27T11:21:03.216Z,4.10
2023-01-27T11:23:20.685Z,4.13
2023-01-27T11:25:31.997Z,4.25
2023-01-27T11:27:57.019Z,4.50
2023-01-27T11:30:13.010Z,4.30
2023-01-27T11:32:33.237Z,4.30
2023-01-27T11:34:47.799Z,4.00
2023-01-27T11:36:55.179Z,4.10
2023-01-27T11:39:02.670Z,4.47
2023-01-27T11:41:10.029Z,4.43
2023-01-27T11:43:21.589Z,4.45
2023-01-27T11:47:41.724Z,4.20
2023-01-27T11:49:53.169Z,3.90
2023-01-27T11:52:06.800Z,4.35
2023-01-27T11:54:21.000Z,4.63
2023-01-27T11:56:28.179Z,4.65
2023-01-27T11:58:41.966Z,5.50
2023-01-27T12:00:55.971Z,5.00
2023-01-27T12:03:09.902Z,4.70
2023-01-27T12:05:20.878Z,4.63
2023-01-27T12:07:41.619Z,4.38
2023-01-27T12:09:48.440Z,4.38
2023-01-27T12:12:14.367Z,3.88
2023-01-27T12:14:21.237Z,4.40
2023-01-27T12:16:46.696Z,3.83
2023-01-27T12:18:58.332Z,3.90
2023-01-27T12:23:23.537Z,4.13
2023-01-27T12:25:32.933Z,4.00
2023-01-27T12:27:45.745Z,3.80
2023-01-27T12:29:56.819Z,3.80
2023-01-27T12:32:05.606Z,3.40
2023-01-27T12:34:23.520Z,2.97
2023-01-27T12:36:31.422Z,3.13
2023-01-27T12:38:40.499Z,3.13
2023-01-27T12:40:50.237Z,2.90
2023-01-27T12:43:13.859Z,2.70
2023-01-27T12:45:26.978Z,2.70
2023-01-27T12:47:35.901Z,3.13
2023-01-27T12:49:45.692Z,2.85
2023-01-27T12:51:58.723Z,2.80
2023-01-27T12:54:19.720Z,2.80
2023-01-27T12:56:27.613Z,3.10
2023-01-27T12:58:40.636Z,2.90
2023-01-27T13:00:50.287Z,2.45
2023-01-27T13:03:06.976Z,2.92
2023-01-27T13:05:21.072Z,2.78
2023-01-27T13:07:31.176Z,2.72
2023-01-27T13:09:42.090Z,2.85
2023-01-27T13:11:49.374Z,2.80
2023-01-27T13:13:56.505Z,3.05
2023-01-27T13:16:09.514Z,3.03
2023-01-27T13:18:24.588Z,3.20
2023-01-27T13:20:34.847Z,2.80
2023-01-27T13:22:47.717Z,2.95
2023-01-27T13:25:00.137Z,3.13
2023-01-27T13:27:09.801Z,3.22
2023-01-27T13:29:21.200Z,3.40
2023-01-27T13:31:43.974Z,2.65
2023-01-27T13:33:57.613Z,2.95
2023-01-27T13:36:10.433Z,3.10
2023-01-27T13:38:22.573Z,3.08
2023-01-27T13:40:34.655Z,3.10
2023-01-27T13:42:47.081Z,3.13
2023-01-27T13:44:59.787Z,3.33
2023-01-27T13:47:13.879Z,3.72
2023-01-27T13:49:34.374Z,3.50
2023-01-27T13:51:41.864Z,3.10
2023-01-27T13:53:50.168Z,3.08
2023-01-27T13:56:09.876Z,3.13
2023-01-27T13:58:24.705Z,3.75
2023-01-27T14:00:39.057Z,3.72
2023-01-27T14:03:22.826Z,3.63
2023-01-27T14:05:47.163Z,3.92
2023-01-27T14:07:59.941Z,3.90
2023-01-27T14:10:20.235Z,3.40
2023-01-27T14:12:41.747Z,3.33
2023-01-27T14:14:58.961Z,3.33
2023-01-27T14:17:31.031Z,3.38
2023-01-27T14:19:49.732Z,3.50
2023-01-27T14:22:03.162Z,3.08
2023-01-27T14:24:22.029Z,3.28
2023-01-27T14:26:46.656Z,2.75
2023-01-27T14:29:05.426Z,2.97
2023-01-27T14:31:19.010Z,2.85
2023-01-27T14:33:49.145Z,2.97
2023-01-27T14:36:02.742Z,2.75
2023-01-27T14:38:20.000Z,2.47
2023-01-27T14:40:32.569Z,2.40
2023-01-27T14:42:48.087Z,2.30
2023-01-27T14:45:04.342Z,2.40
2023-01-27T14:47:19.305Z,2.85
2023-01-27T14:49:34.216Z,2.50
2023-01-27T14:51:46.248Z,2.30
2023-01-27T14:54:20.014Z,2.35
2023-01-27T14:56:38.410Z,2.33
2023-01-27T14:58:56.606Z,2.20
2023-01-27T15:01:14.279Z,2.40
2023-01-27T15:03:51.166Z,2.20
2023-01-27T15:06:05.406Z,2.28
2023-01-27T15:08:20.113Z,2.47
2023-01-27T15:10:30.681Z,2.20
2023-01-27T15:12:55.880Z,2.67
2023-01-27T15:15:31.273Z,2.13
2023-01-27T15:17:54.978Z,2.15
2023-01-27T15:20:33.837Z,2.33
2023-01-27T15:22:57.010Z,2.20
2023-01-27T15:25:22.182Z,2.80
2023-01-27T15:27:31.590Z,2.40
2023-01-27T15:29:38.760Z,2.38
2023-01-27T15:31:46.230Z,2.55
2023-01-27T15:33:58.894Z,2.65
2023-01-27T15:36:21.519Z,2.80
2023-01-27T15:41:05.834Z,2.72
2023-01-27T15:43:18.405Z,3.17
2023-01-27T15:45:33.172Z,2.83
2023-01-27T15:47:40.036Z,2.90
2023-01-27T15:49:50.648Z,2.65
2023-01-27T15:51:59.933Z,2.88
2023-01-27T15:54:07.880Z,3.42
2023-01-27T15:56:14.907Z,3.10
2023-01-27T15:58:31.552Z,2.25
2023-01-27T16:00:40.636Z,2.90
2023-01-27T16:02:53.860Z,3.10
2023-01-27T16:05:11.130Z,2.83
2023-01-27T16:07:27.525Z,2.60
2023-01-27T16:09:41.628Z,2.72
2023-01-27T16:12:02.427Z,3.28
2023-01-27T16:14:45.547Z,3.28
2023-01-27T16:17:30.411Z,3.80
2023-01-27T16:19:39.949Z,4.82
2023-01-27T16:21:52.607Z,4.97
2023-01-27T16:24:04.078Z,4.90
2023-01-27T16:26:30.767Z,4.38
2023-01-27T16:28:40.315Z,3.58
2023-01-27T16:31:00.130Z,3.70
2023-01-27T16:33:10.246Z,3.70
2023-01-27T16:35:21.582Z,2.97
2023-01-27T16:37:30.905Z,2.53
2023-01-27T16:39:46.845Z,2.90
2023-01-27T16:41:58.256Z,2.92
2023-01-27T16:44:08.271Z,3.10
2023-01-27T16:46:32.194Z,2.78
2023-01-27T16:48:45.021Z,2.67
2023-01-27T16:50:52.908Z,2.75
2023-01-27T16:52:59.938Z,2.40
2023-01-27T16:55:07.403Z,2.65
2023-01-27T16:57:32.975Z,2.38
2023-01-27T16:59:42.934Z,2.80
2023-01-27T17:01:54.313Z,2.60
2023-01-27T17:04:19.136Z,2.50
2023-01-27T17:06:29.620Z,2.65
2023-01-27T17:08:38.181Z,2.53
2023-01-27T17:10:48.335Z,2.50
2023-01-27T17:12:55.208Z,2.38
2023-01-27T17:15:03.012Z,2.40
2023-01-27T17:17:21.463Z,2.60
2023-01-27T17:19:32.063Z,2.35
2023-01-27T17:21:43.756Z,2.25
2023-01-27T17:25:57.553Z,2.70
2023-01-27T17:28:05.758Z,2.75
2023-01-27T17:30:23.694Z,2.30
2023-01-27T17:32:35.082Z,2.55
2023-01-27T17:34:43.888Z,2.60
2023-01-27T17:37:10.680Z,2.60
2023-01-27T17:39:29.130Z,2.80
2023-01-27T17:41:40.402Z,2.63
2023-01-27T17:43:48.608Z,2.28
2023-01-27T17:46:16.565Z,2.40
2023-01-27T17:48:25.302Z,3.22
2023-01-27T17:50:37.437Z,3.05
2023-01-27T17:52:52.501Z,2.78
2023-01-27T17:55:07.219Z,2.85
2023-01-27T17:57:21.275Z,2.80
2023-01-27T17:59:29.925Z,2.95
2023-01-27T18:01:37.742Z,2.78
2023-01-27T18:03:46.444Z,3.13
2023-01-27T18:05:56.114Z,2.65
2023-01-27T18:08:04.853Z,2.60
2023-01-27T18:10:27.544Z,2.58
2023-01-27T18:12:36.810Z,2.25
2023-01-27T18:14:43.956Z,2.58
2023-01-27T18:17:02.035Z,1.80
2023-01-27T18:19:24.379Z,2.13
2023-01-27T18:21:31.407Z,2.60
2023-01-27T18:23:40.993Z,2.33
2023-01-27T18:25:51.891Z,2.55
2023-01-27T18:28:02.071Z,2.40
2023-01-27T18:30:16.976Z,2.30
2023-01-27T18:32:27.232Z,2.55
2023-01-27T18:34:36.817Z,2.53
2023-01-27T18:36:56.556Z,2.45
2023-01-27T18:39:03.727Z,2.78
2023-01-27T18:41:16.386Z,2.75
2023-01-27T18:43:23.208Z,2.67
2023-01-27T18:45:31.260Z,3.15
2023-01-27T18:47:39.672Z,2.65
2023-01-27T18:49:48.694Z,2.95
2023-01-27T18:51:56.081Z,2.38
2023-01-27T18:54:03.267Z,2.65
2023-01-27T18:56:10.754Z,3.58
2023-01-27T18:58:19.061Z,3.20
2023-01-27T19:00:27.600Z,3.15
2023-01-27T19:02:34.754Z,3.38
2023-01-27T19:04:41.680Z,2.72
2023-01-27T19:06:51.456Z,2.65
2023-01-27T19:08:58.278Z,3.20
2023-01-27T19:11:05.579Z,3.03
2023-01-27T19:13:15.484Z,2.95
2023-01-27T19:15:24.862Z,3.22
2023-01-27T19:17:31.685Z,3.10
2023-01-27T19:19:39.271Z,2.83
2023-01-27T19:21:46.155Z,3.22
2023-01-27T19:23:55.196Z,2.88
2023-01-27T19:26:03.274Z,3.58
2023-01-27T19:28:16.859Z,3.30
2023-01-27T19:30:28.293Z,3.28
2023-01-27T19:32:35.469Z,3.03
2023-01-27T19:34:42.245Z,3.03
2023-01-27T19:36:49.409Z,2.92
2023-01-27T19:39:02.551Z,3.25
2023-01-27T19:41:10.941Z,3.38
2023-01-27T19:43:18.442Z,3.20
2023-01-27T19:45:26.316Z,3.20
2023-01-27T19:47:33.146Z,3.40
2023-01-27T19:49:40.295Z,3.25
2023-01-27T19:51:47.100Z,3.25
2023-01-27T19:53:54.415Z,3.38
2023-01-27T19:56:02.915Z,3.30
2023-01-27T19:58:10.148Z,3.03
2023-01-27T20:00:25.829Z,3.70
2023-01-27T20:02:33.139Z,3.17
2023-01-27T20:04:40.045Z,2.95
2023-01-27T20:06:47.219Z,3.70
2023-01-27T20:08:56.548Z,3.30
2023-01-27T20:11:05.268Z,3.38
2023-01-27T20:13:16.649Z,3.50
2023-01-27T20:15:25.338Z,3.60
2023-01-27T20:17:32.139Z,3.70
2023-01-27T20:19:39.051Z,3.97
2023-01-27T20:21:46.457Z,3.40
2023-01-27T20:23:53.328Z,3.33
2023-01-27T20:26:00.658Z,3.80
2023-01-27T20:28:09.428Z,3.80
2023-01-27T20:30:19.951Z,3.88
2023-01-27T20:32:27.067Z,4.40
2023-01-27T20:34:34.353Z,3.92
2023-01-27T20:36:41.284Z,3.80
2023-01-27T20:38:48.867Z,4.20
2023-01-27T20:40:55.732Z,4.75
2023-01-27T20:43:03.438Z,4.45
2023-01-27T20:45:13.480Z,4.22
2023-01-27T20:47:20.821Z,4.43
2023-01-27T20:49:28.056Z,4.72
2023-01-27T20:51:35.491Z,4.40
2023-01-27T20:53:46.259Z,4.25
2023-01-27T20:55:53.540Z,4.60
2023-01-27T20:58:01.858Z,4.05
2023-01-27T21:00:12.203Z,4.38
2023-01-27T21:02:19.562Z,4.35
2023-01-27T21:04:26.882Z,4.63
2023-01-27T21:06:33.748Z,4.68
2023-01-27T21:08:40.929Z,4.43
2023-01-27T21:10:47.857Z,5.05
2023-01-27T21:12:54.888Z,4.50
2023-01-27T21:15:02.716Z,3.92
2023-01-27T21:17:12.728Z,4.30
2023-01-27T21:19:19.900Z,4.25
2023-01-27T21:21:28.937Z,4.28
2023-01-27T21:23:36.643Z,4.43
2023-01-27T21:25:43.810Z,4.05
2023-01-27T21:27:50.842Z,4.47
2023-01-27T21:29:57.869Z,4.10
2023-01-27T21:32:04.788Z,3.75
2023-01-27T21:34:14.287Z,4.50
2023-01-27T21:36:22.076Z,4.50
2023-01-27T21:38:29.407Z,4.13
2023-01-27T21:40:36.320Z,4.53
2023-01-27T21:43:00.060Z,4.38
2023-01-27T21:45:14.738Z,3.97
2023-01-27T21:47:22.458Z,4.25
2023-01-27T21:49:31.223Z,4.88
2023-01-27T21:51:38.558Z,4.07
2023-01-27T21:53:45.790Z,4.68
2023-01-27T21:55:52.923Z,4.40
2023-01-27T21:57:59.847Z,4.50
2023-01-27T22:00:07.746Z,4.05
2023-01-27T22:02:23.528Z,4.50
2023-01-27T22:04:32.262Z,4.70
2023-01-27T22:06:40.714Z,4.30
2023-01-27T22:08:47.738Z,4.38
2023-01-27T22:10:54.969Z,4.78
2023-01-27T22:13:02.763Z,4.82
2023-01-27T22:15:11.367Z,5.10
2023-01-27T22:17:19.995Z,5.32
2023-01-27T22:19:27.124Z,4.60
2023-01-27T22:21:36.154Z,5.47
2023-01-27T22:23:43.183Z,6.25
2023-01-27T22:25:52.471Z,6.35
2023-01-27T22:27:59.371Z,6.35
2023-01-27T22:30:06.617Z,7.22
2023-01-27T22:32:13.499Z,7.15
2023-01-27T22:34:20.979Z,7.30
2023-01-27T22:36:27.751Z,6.68
2023-01-27T22:38:40.565Z,6.75
2023-01-27T22:40:47.438Z,6.68
2023-01-27T22:42:54.520Z,6.60
2023-01-27T22:45:01.495Z,6.43
2023-01-27T22:47:08.626Z,6.88
2023-01-27T22:49:15.537Z,6.35
2023-01-27T22:51:22.630Z,7.20
2023-01-27T22:53:29.462Z,8.18
2023-01-27T22:55:38.323Z,9.02
2023-01-27T22:57:48.789Z,9.27
2023-01-27T22:59:55.963Z,8.27
2023-01-27T23:02:02.953Z,7.72
2023-01-27T23:04:10.121Z,7.70
2023-01-27T23:06:16.998Z,6.50
2023-01-27T23:08:24.028Z,6.20
2023-01-27T23:10:30.899Z,7.05
2023-01-27T23:12:39.830Z,6.88
2023-01-27T23:14:46.747Z,6.55
2023-01-27T23:16:54.570Z,7.30
2023-01-27T23:19:01.472Z,7.60
2023-01-27T23:21:09.930Z,8.18
2023-01-27T23:23:17.455Z,7.82
2023-01-27T23:25:24.859Z,8.68
2023-01-27T23:27:31.783Z,9.68
2023-01-27T23:29:40.410Z,9.60
2023-01-27T23:31:47.437Z,10.80
2023-01-27T23:33:54.815Z,10.02
2023-01-27T23:36:01.838Z,9.77
2023-01-27T23:38:19.508Z,8.18
2023-01-27T23:40:34.685Z,7.53
2023-01-27T23:42:41.968Z,7.30
2023-01-27T23:44:51.206Z,7.68
2023-01-27T23:46:58.538Z,6.22
2023-01-27T23:49:05.366Z,6.20
2023-01-27T23:51:13.296Z,6.03
2023-01-27T23:53:20.292Z,6.03
2023-01-27T23:55:27.463Z,5.82
2023-01-27T23:57:34.390Z,5.53
2023-01-27T23:59:42.287Z,5.28
